Time;durP1;ratioP1;P1;durP2;ratioP2;P2;SDS_P1;SDS_P2;PMS_P1;PMS_P2;Temp;Humidity;BMP_temperature;BMP_pressure;BME280_temperature;BME280_humidity;BME280_pressure;Samples;Min_cycle;Max_cycle;Signal;HPM_P1;HPM_P2
2022/07/25 00:00:22;;;;;;;3.47;2.40;;;24.90;99.90;;;;;;5016902;28;20038;-68
2022/07/25 00:02:48;;;;;;;3.05;2.20;;;24.90;99.90;;;;;;5016767;28;20046;-68
2022/07/25 00:05:13;;;;;;;4.32;2.08;;;25.00;99.90;;;;;;5016043;28;20538;-68
2022/07/25 00:07:39;;;;;;;3.17;2.40;;;24.90;99.90;;;;;;5016655;28;20041;-68
2022/07/25 00:10:06;;;;;;;4.32;2.28;;;25.00;99.90;;;;;;5016595;28;20045;-69
2022/07/25 00:12:31;;;;;;;3.05;2.45;;;24.90;99.90;;;;;;5016710;28;20107;-68
2022/07/25 00:14:57;;;;;;;2.78;2.30;;;24.90;99.90;;;;;;5016636;28;20046;-70
2022/07/25 00:17:23;;;;;;;2.70;2.25;;;25.00;99.90;;;;;;5016326;28;20192;-68
2022/07/25 00:19:48;;;;;;;4.22;2.45;;;25.00;99.90;;;;;;5016456;28;20056;-68
2022/07/25 00:22:14;;;;;;;4.20;2.25;;;25.00;99.90;;;;;;5016748;28;20045;-68
2022/07/25 00:24:40;;;;;;;5.75;2.25;;;25.00;99.90;;;;;;5016312;28;20052;-69
2022/07/25 00:27:06;;;;;;;2.63;2.17;;;25.00;99.90;;;;;;5016707;28;20334;-68
2022/07/25 00:29:31;;;;;;;2.80;2.22;;;25.00;99.90;;;;;;5016465;28;20431;-69
2022/07/25 00:31:57;;;;;;;3.25;2.28;;;25.00;99.90;;;;;;5016408;28;20062;-68
2022/07/25 00:34:23;;;;;;;2.95;2.40;;;24.90;99.90;;;;;;5016378;28;20125;-68
2022/07/25 00:36:48;;;;;;;3.70;2.40;;;25.00;99.90;;;;;;5016172;28;20129;-69
2022/07/25 00:39:14;;;;;;;2.47;2.17;;;25.00;99.90;;;;;;5016456;28;20038;-69
2022/07/25 00:41:40;;;;;;;3.00;2.25;;;25.00;99.90;;;;;;5016418;28;20045;-68
2022/07/25 00:44:06;;;;;;;4.47;2.58;;;25.00;99.90;;;;;;5016558;28;20029;-68
2022/07/25 00:46:32;;;;;;;4.10;2.88;;;24.90;99.90;;;;;;5015735;28;20391;-68
2022/07/25 00:48:57;;;;;;;4.72;2.80;;;24.80;99.90;;;;;;5016437;28;20045;-68
2022/07/25 00:51:24;;;;;;;4.07;3.05;;;24.70;99.90;;;;;;5016299;28;20041;-68
2022/07/25 00:53:50;;;;;;;5.20;3.03;;;24.70;99.90;;;;;;5016310;28;20038;-68
2022/07/25 00:56:16;;;;;;;4.40;3.53;;;24.60;99.90;;;;;;5015979;28;20053;-68
2022/07/25 00:58:44;;;;;;;3.67;2.78;;;24.60;99.90;;;;;;5016078;28;20042;-68
2022/07/25 01:01:09;;;;;;;3.72;3.20;;;24.60;99.90;;;;;;5016141;28;20132;-68
2022/07/25 01:03:35;;;;;;;5.78;3.70;;;24.50;99.90;;;;;;5016133;28;20100;-69
2022/07/25 01:06:01;;;;;;;4.70;3.70;;;24.50;99.90;;;;;;5016221;28;20153;-68
2022/07/25 01:08:28;;;;;;;4.30;3.30;;;24.40;99.90;;;;;;5015908;28;20116;-68
2022/07/25 01:10:53;;;;;;;5.32;3.20;;;24.40;99.90;;;;;;5016031;28;20065;-68
2022/07/25 01:13:19;;;;;;;4.28;3.72;;;24.40;99.90;;;;;;5016105;28;20042;-68
2022/07/25 01:15:45;;;;;;;5.07;3.38;;;24.40;99.90;;;;;;4999537;28;20077;-73
2022/07/25 01:18:11;;;;;;;5.82;4.00;;;24.30;99.90;;;;;;5019483;28;20057;-69
2022/07/25 01:20:36;;;;;;;7.72;4.13;;;24.40;99.90;;;;;;5019299;28;20449;-68
2022/07/25 01:23:02;;;;;;;6.97;4.40;;;24.50;99.90;;;;;;5001959;28;20053;-69
2022/07/25 01:25:28;;;;;;;4.60;4.05;;;24.50;99.90;;;;;;5019442;28;20044;-68
2022/07/25 01:27:54;;;;;;;4.32;3.92;;;24.50;99.90;;;;;;5019574;28;20034;-68
2022/07/25 01:30:21;;;;;;;6.57;4.05;;;24.40;99.90;;;;;;5019087;28;20058;-68
2022/07/25 01:32:46;;;;;;;6.90;4.38;;;24.40;99.90;;;;;;5019610;28;20116;-68
2022/07/25 01:35:13;;;;;;;6.03;4.03;;;24.40;99.90;;;;;;5001928;28;20077;-68
2022/07/25 01:37:39;;;;;;;5.68;4.32;;;24.40;99.90;;;;;;5018862;28;20038;-69
2022/07/25 01:40:05;;;;;;;5.47;4.28;;;24.30;99.90;;;;;;5019350;28;20065;-68
2022/07/25 01:42:32;;;;;;;6.45;4.43;;;24.20;99.90;;;;;;5018989;28;20034;-68
2022/07/25 01:44:58;;;;;;;5.28;4.72;;;24.10;99.90;;;;;;5019178;28;20488;-68
2022/07/25 01:47:24;;;;;;;6.82;5.10;;;24.00;99.90;;;;;;5018494;28;20088;-68
2022/07/25 01:49:49;;;;;;;4.70;4.20;;;23.90;99.90;;;;;;5019135;28;20037;-68
2022/07/25 01:52:15;;;;;;;5.57;4.05;;;23.80;99.90;;;;;;5018838;28;20346;-70
2022/07/25 01:54:41;;;;;;;6.18;5.18;;;23.90;99.90;;;;;;5019078;28;20100;-68
2022/07/25 01:57:07;;;;;;;8.60;5.20;;;23.90;99.90;;;;;;5018868;28;20407;-68
2022/07/25 01:59:37;;;;;;;5.40;4.70;;;23.80;99.90;;;;;;5018673;28;20435;-68
2022/07/25 02:02:04;;;;;;;8.57;4.78;;;23.70;99.90;;;;;;5018948;28;20069;-68
2022/07/25 02:04:29;;;;;;;7.47;5.15;;;23.70;99.90;;;;;;5018715;28;20378;-68
2022/07/25 02:06:55;;;;;;;9.85;5.57;;;23.70;99.90;;;;;;5018483;28;20038;-69
2022/07/25 02:09:21;;;;;;;5.78;5.15;;;23.70;99.90;;;;;;5018566;28;20323;-68
2022/07/25 02:11:46;;;;;;;9.73;5.35;;;23.70;99.90;;;;;;5018785;28;20046;-68
2022/07/25 02:14:12;;;;;;;11.43;6.07;;;23.70;99.90;;;;;;5018684;28;20053;-69
2022/07/25 02:16:38;;;;;;;9.02;5.50;;;23.70;99.90;;;;;;5018042;28;20092;-68
2022/07/25 02:19:03;;;;;;;7.47;5.40;;;23.50;99.90;;;;;;5018338;28;20116;-68
2022/07/25 02:21:29;;;;;;;6.32;5.18;;;23.60;99.90;;;;;;5018466;28;20041;-68
2022/07/25 02:23:55;;;;;;;9.02;6.43;;;23.60;99.90;;;;;;5018438;28;20030;-68
2022/07/25 02:26:20;;;;;;;8.23;6.35;;;23.70;99.90;;;;;;5018260;28;20077;-68
2022/07/25 02:28:48;;;;;;;10.57;6.32;;;23.60;99.90;;;;;;5017365;28;20037;-68
2022/07/25 02:31:13;;;;;;;10.05;6.22;;;23.70;99.90;;;;;;5017828;28;20054;-68
2022/07/25 02:33:39;;;;;;;12.00;6.53;;;23.70;99.90;;;;;;5018306;28;20034;-68
2022/07/25 02:36:05;;;;;;;8.05;6.47;;;23.70;99.90;;;;;;5017901;28;20033;-69
2022/07/25 02:38:31;;;;;;;10.00;6.35;;;23.70;99.90;;;;;;5018165;28;20188;-68
2022/07/25 02:40:56;;;;;;;12.95;7.38;;;23.70;99.90;;;;;;5017914;28;20113;-68
2022/07/25 02:43:22;;;;;;;10.52;7.22;;;23.50;99.90;;;;;;5018132;28;20034;-68
2022/07/25 02:45:48;;;;;;;12.10;7.07;;;23.30;99.90;;;;;;5017413;28;20056;-68
2022/07/25 02:48:13;;;;;;;9.02;6.65;;;23.30;99.90;;;;;;5018078;28;20042;-68
2022/07/25 02:50:39;;;;;;;8.63;6.50;;;23.30;99.90;;;;;;5017672;28;20443;-69
2022/07/25 02:53:05;;;;;;;7.15;5.45;;;23.30;99.90;;;;;;5017844;28;20045;-68
2022/07/25 02:55:31;;;;;;;10.75;6.65;;;23.20;99.90;;;;;;5017924;28;20446;-68
2022/07/25 02:57:57;;;;;;;8.70;6.03;;;23.20;99.90;;;;;;5017609;28;20092;-68
2022/07/25 03:00:23;;;;;;;10.20;6.75;;;23.20;99.90;;;;;;5017561;28;20497;-68
2022/07/25 03:02:49;;;;;;;9.18;6.97;;;23.30;99.90;;;;;;5017666;28;20084;-68
2022/07/25 03:05:16;;;;;;;7.35;5.72;;;23.30;99.90;;;;;;5017534;28;20056;-68
2022/07/25 03:07:44;;;;;;;7.68;5.60;;;23.40;99.90;;;;;;5017508;28;20362;-68
2022/07/25 03:10:11;;;;;;;7.43;5.45;;;23.40;99.90;;;;;;5017598;28;20038;-68
2022/07/25 03:12:38;;;;;;;8.30;6.55;;;23.30;99.90;;;;;;5017567;28;20046;-68
2022/07/25 03:15:07;;;;;;;8.88;6.75;;;23.40;99.90;;;;;;5017311;28;20050;-68
2022/07/25 03:17:32;;;;;;;7.78;6.43;;;23.40;99.90;;;;;;4999705;28;20088;-68
2022/07/25 03:19:58;;;;;;;7.68;5.70;;;23.40;99.90;;;;;;5017316;28;20041;-68
2022/07/25 03:22:24;;;;;;;7.40;5.72;;;23.50;99.90;;;;;;5017398;28;20062;-68
2022/07/25 03:24:52;;;;;;;6.05;5.20;;;23.30;99.90;;;;;;5017235;28;20048;-68
2022/07/25 03:27:18;;;;;;;9.73;6.63;;;23.20;99.90;;;;;;4999694;28;20042;-68
2022/07/25 03:29:44;;;;;;;9.73;6.70;;;23.20;99.90;;;;;;5017076;28;20119;-68
2022/07/25 03:32:09;;;;;;;10.93;6.05;;;23.20;99.90;;;;;;5016968;28;20107;-69
2022/07/25 03:34:36;;;;;;;7.20;5.55;;;23.20;99.90;;;;;;5015913;28;20045;-68
2022/07/25 03:37:02;;;;;;;7.75;5.60;;;23.30;99.90;;;;;;5017106;28;20100;-68
2022/07/25 03:39:29;;;;;;;8.13;6.20;;;23.20;99.90;;;;;;5017038;28;20037;-68
2022/07/25 03:41:54;;;;;;;10.65;6.38;;;23.20;99.90;;;;;;5016963;28;20044;-68
2022/07/25 03:44:22;;;;;;;7.05;5.63;;;23.10;99.90;;;;;;5016873;28;20344;-68
2022/07/25 03:46:48;;;;;;;9.90;5.65;;;23.10;99.90;;;;;;5016496;28;20034;-68
2022/07/25 03:49:13;;;;;;;7.35;5.43;;;23.10;99.90;;;;;;5016706;28;20423;-68
2022/07/25 03:51:39;;;;;;;7.32;5.57;;;23.10;99.90;;;;;;5017000;28;20053;-68
2022/07/25 03:54:05;;;;;;;7.63;5.47;;;23.00;99.90;;;;;;5016882;28;20187;-68
2022/07/25 03:56:39;;;;;;;7.45;5.85;;;23.00;99.90;;;;;;5016939;28;20037;-68
2022/07/25 03:59:06;;;;;;;5.50;4.88;;;23.00;99.90;;;;;;5016626;28;20038;-68
2022/07/25 04:01:33;;;;;;;7.95;5.78;;;23.00;99.90;;;;;;5016871;28;20109;-69
2022/07/25 04:03:59;;;;;;;7.05;5.30;;;22.90;99.90;;;;;;5016749;28;20049;-69
2022/07/25 04:06:25;;;;;;;10.38;6.15;;;22.80;99.90;;;;;;5016888;28;20038;-68
2022/07/25 04:08:51;;;;;;;6.70;5.85;;;22.80;99.90;;;;;;5016666;28;20342;-68
2022/07/25 04:11:17;;;;;;;7.35;5.80;;;22.80;99.90;;;;;;5016683;28;20044;-69
2022/07/25 04:13:43;;;;;;;8.90;6.43;;;22.80;99.90;;;;;;5016623;28;20034;-68
2022/07/25 04:16:09;;;;;;;8.88;6.07;;;22.70;99.90;;;;;;5016000;28;20034;-69
2022/07/25 04:18:35;;;;;;;6.45;5.50;;;22.70;99.90;;;;;;5016401;28;20506;-68
2022/07/25 04:21:01;;;;;;;5.85;5.25;;;22.80;99.90;;;;;;5016548;28;20328;-68
2022/07/25 04:23:27;;;;;;;8.38;5.97;;;22.80;99.90;;;;;;5016692;28;20081;-69
2022/07/25 04:25:53;;;;;;;7.20;5.82;;;22.90;99.90;;;;;;5016461;28;20038;-68
2022/07/25 04:28:19;;;;;;;7.07;6.18;;;22.80;99.90;;;;;;5016595;28;20050;-68
2022/07/25 04:30:45;;;;;;;6.72;5.93;;;22.90;99.90;;;;;;4995512;28;20085;-69
2022/07/25 04:33:12;;;;;;;8.88;7.90;;;22.90;99.90;;;;;;4996668;28;20058;-68
2022/07/25 04:35:38;;;;;;;10.02;7.95;;;22.80;99.90;;;;;;4997081;28;20046;-68
2022/07/25 04:38:04;;;;;;;12.43;7.63;;;22.90;99.90;;;;;;4996512;28;20046;-68
2022/07/25 04:40:29;;;;;;;8.90;7.50;;;23.00;99.90;;;;;;4996849;28;20121;-68
2022/07/25 04:42:55;;;;;;;9.35;7.70;;;23.10;99.90;;;;;;4996562;28;20367;-68
2022/07/25 04:45:22;;;;;;;10.43;8.02;;;23.20;99.90;;;;;;4996906;28;20078;-68
2022/07/25 04:47:48;;;;;;;13.07;9.10;;;23.30;99.90;;;;;;4996165;28;20462;-68
2022/07/25 04:50:14;;;;;;;14.88;8.60;;;23.30;99.90;;;;;;4997227;28;20042;-69
2022/07/25 04:52:40;;;;;;;11.23;8.50;;;23.40;99.90;;;;;;5000585;28;20125;-68
2022/07/25 04:55:06;;;;;;;13.23;8.95;;;23.50;99.90;;;;;;5000537;28;20130;-68
2022/07/25 04:57:31;;;;;;;12.73;10.00;;;23.60;99.90;;;;;;5000498;28;20093;-68
2022/07/25 04:59:57;;;;;;;13.05;8.60;;;23.70;99.90;;;;;;5000229;28;20046;-69
2022/07/25 05:02:24;;;;;;;12.77;8.93;;;23.70;99.90;;;;;;5000242;28;20038;-68
2022/07/25 05:04:50;;;;;;;10.98;8.15;;;23.70;99.90;;;;;;5000292;28;20113;-68
2022/07/25 05:07:16;;;;;;;13.93;9.05;;;23.70;99.90;;;;;;5000290;28;20125;-68
2022/07/25 05:09:42;;;;;;;18.98;9.38;;;23.70;99.90;;;;;;5000096;28;20490;-68
2022/07/25 05:12:08;;;;;;;12.52;9.45;;;23.70;99.90;;;;;;5000264;28;20122;-69
2022/07/25 05:14:33;;;;;;;13.98;9.40;;;23.80;99.90;;;;;;4998926;28;20073;-69
2022/07/25 05:16:59;;;;;;;12.00;9.10;;;23.70;99.90;;;;;;4998644;28;20045;-68
2022/07/25 05:19:25;;;;;;;12.27;9.25;;;23.70;99.90;;;;;;5000125;28;20392;-68
2022/07/25 05:21:51;;;;;;;12.65;9.90;;;23.80;99.90;;;;;;4999972;28;20462;-68
2022/07/25 05:24:16;;;;;;;12.35;9.50;;;23.70;99.90;;;;;;5000106;28;20035;-68
2022/07/25 05:26:42;;;;;;;13.65;9.20;;;23.80;99.90;;;;;;4999663;28;20489;-69
2022/07/25 05:29:09;;;;;;;12.27;10.05;;;23.90;99.90;;;;;;4999870;28;20039;-69
2022/07/25 05:31:35;;;;;;;12.13;9.38;;;24.00;99.90;;;;;;5012362;28;20347;-68
2022/07/25 05:34:00;;;;;;;13.82;9.80;;;24.00;99.90;;;;;;5019313;28;20046;-69
2022/07/25 05:36:26;;;;;;;14.23;9.77;;;24.00;99.90;;;;;;5019455;28;20038;-68
2022/07/25 05:38:53;;;;;;;12.35;10.02;;;24.20;99.90;;;;;;5019001;28;20034;-68
2022/07/25 05:41:19;;;;;;;13.75;9.48;;;24.20;99.90;;;;;;5001808;28;20041;-68
2022/07/25 05:43:46;;;;;;;11.88;9.63;;;24.20;99.90;;;;;;5019039;28;20042;-69
2022/07/25 05:46:12;;;;;;;14.02;9.98;;;24.30;99.90;;;;;;4985301;28;20335;-69
2022/07/25 05:48:38;;;;;;;14.00;8.60;;;24.30;99.90;;;;;;5019118;28;20038;-69
2022/07/25 05:51:04;;;;;;;15.52;9.65;;;24.40;99.90;;;;;;5019126;28;20038;-68
2022/07/25 05:53:29;;;;;;;12.90;10.13;;;24.50;99.90;;;;;;5018848;28;20112;-68
2022/07/25 05:55:55;;;;;;;11.05;8.65;;;24.60;99.90;;;;;;5018779;28;20057;-69
2022/07/25 05:58:21;;;;;;;13.85;9.90;;;24.60;99.90;;;;;;5018586;28;20052;-69
2022/07/25 06:00:49;;;;;;;12.98;9.73;;;24.70;99.90;;;;;;5018838;28;20038;-68
2022/07/25 06:03:16;;;;;;;11.80;9.50;;;24.70;99.90;;;;;;5017769;28;20074;-68
2022/07/25 06:05:42;;;;;;;13.88;10.38;;;24.70;99.90;;;;;;5018604;28;20038;-68
2022/07/25 06:08:08;;;;;;;13.00;10.10;;;24.80;99.90;;;;;;5018871;28;20038;-68
2022/07/25 06:10:33;;;;;;;15.52;10.13;;;24.70;99.90;;;;;;5018457;28;20117;-69
2022/07/25 06:12:59;;;;;;;13.10;9.38;;;24.60;99.90;;;;;;5018409;28;20073;-70
2022/07/25 06:15:25;;;;;;;15.02;10.90;;;24.80;99.90;;;;;;5001397;28;20042;-68
2022/07/25 06:17:50;;;;;;;13.38;10.38;;;24.90;99.90;;;;;;5018019;28;20057;-69
2022/07/25 06:20:16;;;;;;;11.77;9.98;;;24.80;99.90;;;;;;5018293;28;20438;-68
2022/07/25 06:22:42;;;;;;;14.80;11.05;;;25.00;99.90;;;;;;5018318;28;20048;-68
2022/07/25 06:25:08;;;;;;;12.52;10.95;;;25.00;99.90;;;;;;5018379;28;20370;-68
2022/07/25 06:27:34;;;;;;;13.40;9.93;;;25.10;99.90;;;;;;5018135;28;20045;-69
2022/07/25 06:30:01;;;;;;;13.13;10.55;;;25.10;99.90;;;;;;5018467;28;20046;-68
2022/07/25 06:32:27;;;;;;;18.33;11.65;;;25.10;99.90;;;;;;5017952;28;20053;-68
2022/07/25 06:34:53;;;;;;;15.10;11.30;;;25.10;99.90;;;;;;5018138;28;20111;-69
2022/07/25 06:37:19;;;;;;;16.00;10.85;;;25.00;99.90;;;;;;5017901;28;20061;-68
2022/07/25 06:39:44;;;;;;;17.42;11.35;;;25.00;99.90;;;;;;5017945;28;20037;-68
2022/07/25 06:42:10;;;;;;;15.15;11.18;;;25.00;99.90;;;;;;5018168;28;20446;-71
2022/07/25 06:44:35;;;;;;;14.68;10.65;;;25.10;99.90;;;;;;5018004;28;20045;-69
2022/07/25 06:47:02;;;;;;;16.98;11.25;;;25.20;99.90;;;;;;5000087;28;20437;-69
2022/07/25 06:49:27;;;;;;;16.75;11.50;;;25.30;99.90;;;;;;5017991;28;20088;-68
2022/07/25 06:51:53;;;;;;;16.83;11.48;;;25.40;99.90;;;;;;5017864;28;20042;-68
2022/07/25 06:54:19;;;;;;;15.80;11.88;;;25.50;99.90;;;;;;5017946;28;20041;-68
2022/07/25 06:56:45;;;;;;;14.40;11.15;;;25.50;99.90;;;;;;5017587;28;20125;-68
2022/07/25 06:59:11;;;;;;;14.85;11.05;;;25.50;99.90;;;;;;5017932;28;20128;-68
2022/07/25 07:01:36;;;;;;;15.20;11.02;;;25.80;99.90;;;;;;5017729;28;20037;-68
2022/07/25 07:04:02;;;;;;;16.67;10.52;;;25.90;99.90;;;;;;5016739;28;20042;-68
2022/07/25 07:06:28;;;;;;;13.57;10.80;;;26.10;99.90;;;;;;5017480;28;20446;-68
2022/07/25 07:08:55;;;;;;;17.52;10.27;;;26.10;99.90;;;;;;5017758;28;20104;-69
2022/07/25 07:11:20;;;;;;;14.98;10.82;;;26.00;99.90;;;;;;4999946;28;20058;-69
2022/07/25 07:13:46;;;;;;;13.13;9.85;;;26.10;99.90;;;;;;5017095;28;20042;-69
2022/07/25 07:16:12;;;;;;;15.43;11.00;;;26.10;99.90;;;;;;5017129;28;20091;-69
2022/07/25 07:18:37;;;;;;;13.82;11.40;;;26.20;99.90;;;;;;5017262;28;20038;-68
2022/07/25 07:21:04;;;;;;;12.55;10.43;;;26.00;99.90;;;;;;5017547;28;20042;-69
2022/07/25 07:23:30;;;;;;;17.42;10.80;;;25.80;99.90;;;;;;5017388;28;20044;-69
2022/07/25 07:25:56;;;;;;;15.43;11.02;;;26.00;99.90;;;;;;5017137;28;20331;-70
2022/07/25 07:28:22;;;;;;;14.13;10.40;;;26.00;99.90;;;;;;5017160;28;20458;-69
2022/07/25 07:30:47;;;;;;;14.63;10.75;;;26.00;99.90;;;;;;5016929;28;20171;-69
2022/07/25 07:33:13;;;;;;;13.82;10.77;;;25.90;99.90;;;;;;5017012;28;20046;-69
2022/07/25 07:35:39;;;;;;;18.10;10.32;;;25.80;99.90;;;;;;5017151;28;20081;-69
2022/07/25 07:38:05;;;;;;;14.52;9.68;;;25.50;99.90;;;;;;5016904;28;20125;-68
2022/07/25 07:40:31;;;;;;;14.05;10.98;;;25.40;99.90;;;;;;5017310;28;20038;-72
2022/07/25 07:42:59;;;;;;;15.05;10.85;;;25.50;99.90;;;;;;5018986;28;20434;-73
2022/07/25 07:45:25;;;;;;;13.70;8.98;;;25.30;99.90;;;;;;5017979;28;20128;-69
2022/07/25 07:47:53;;;;;;;13.05;9.35;;;25.50;99.90;;;;;;5016736;28;20081;-70
2022/07/25 07:50:21;;;;;;;14.48;10.45;;;25.70;99.90;;;;;;5016908;28;20041;-69
2022/07/25 07:52:48;;;;;;;16.45;10.27;;;25.80;99.90;;;;;;5016722;28;20486;-69
2022/07/25 07:57:59;;;;;;;13.70;9.20;;;25.80;99.90;;;;;;5016886;28;20172;-69
2022/07/25 08:00:27;;;;;;;13.93;9.57;;;25.60;99.90;;;;;;5016704;28;20038;-69
2022/07/25 08:02:54;;;;;;;11.57;7.93;;;25.70;99.90;;;;;;5016927;28;20378;-69
2022/07/25 08:05:25;;;;;;;13.70;8.73;;;25.70;99.90;;;;;;5016654;28;20124;-69
2022/07/25 08:07:52;;;;;;;13.80;8.55;;;25.80;99.90;;;;;;4999308;28;20049;-69
2022/07/25 08:10:23;;;;;;;11.30;8.00;;;25.80;99.90;;;;;;5016525;28;20427;-69
2022/07/25 08:12:49;;;;;;;12.15;8.52;;;25.70;99.90;;;;;;5016674;28;20045;-69
2022/07/25 08:15:16;;;;;;;10.98;7.05;;;25.70;99.90;;;;;;5016831;28;20053;-69
2022/07/25 08:17:43;;;;;;;13.38;7.60;;;25.60;99.90;;;;;;5016046;28;20119;-68
2022/07/25 08:20:09;;;;;;;12.93;8.73;;;25.80;99.90;;;;;;5016535;28;20117;-69
2022/07/25 08:22:39;;;;;;;11.60;7.47;;;25.80;99.90;;;;;;5016467;28;20458;-68
2022/07/25 08:25:11;;;;;;;12.65;7.15;;;25.60;99.90;;;;;;5016636;28;20044;-68
2022/07/25 08:27:37;;;;;;;9.15;7.10;;;25.80;99.90;;;;;;5020436;28;20042;-68
2022/07/25 08:30:05;;;;;;;13.38;7.65;;;26.10;99.90;;;;;;5020642;28;20096;-69
2022/07/25 08:32:31;;;;;;;14.07;7.47;;;26.20;99.90;;;;;;5020065;28;20501;-69
2022/07/25 08:34:57;;;;;;;10.13;7.32;;;26.30;99.90;;;;;;5020197;28;20033;-69
2022/07/25 08:37:22;;;;;;;8.80;6.32;;;26.30;99.90;;;;;;5020086;28;20046;-69
2022/07/25 08:39:50;;;;;;;10.57;6.57;;;26.30;99.90;;;;;;5003133;28;20092;-69
2022/07/25 08:42:19;;;;;;;10.55;6.90;;;26.40;99.90;;;;;;5020302;28;20041;-68
2022/07/25 08:44:55;;;;;;;10.50;7.10;;;26.20;99.90;;;;;;5020055;28;20045;-68
2022/07/25 08:47:21;;;;;;;9.55;6.40;;;26.10;99.90;;;;;;5019796;28;20050;-70
2022/07/25 08:49:48;;;;;;;8.25;5.80;;;26.10;99.90;;;;;;4986562;28;20419;-75
2022/07/25 08:52:14;;;;;;;13.00;5.88;;;25.90;99.90;;;;;;5020264;28;20038;-68
2022/07/25 08:54:40;;;;;;;14.80;6.85;;;25.80;99.90;;;;;;5020028;28;20120;-67
2022/07/25 08:57:06;;;;;;;6.93;5.40;;;25.90;99.90;;;;;;5020029;28;20433;-67
2022/07/25 08:59:32;;;;;;;7.82;5.60;;;25.90;99.90;;;;;;5020092;28;20092;-67
2022/07/25 09:02:01;;;;;;;8.93;6.05;;;25.90;99.90;;;;;;5019746;28;20034;-68
2022/07/25 09:04:29;;;;;;;9.30;5.50;;;26.10;99.90;;;;;;5019970;28;20037;-67
2022/07/25 09:06:55;;;;;;;7.68;6.18;;;26.10;99.90;;;;;;5019861;28;20049;-67
2022/07/25 09:09:38;;;;;;;12.45;6.85;;;26.20;99.90;;;;;;5017359;28;20041;-68
2022/07/25 09:12:05;;;;;;;8.27;6.50;;;26.20;99.90;;;;;;5010481;28;20070;-71
2022/07/25 09:14:41;;;;;;;8.02;5.60;;;26.10;99.90;;;;;;5017039;28;20144;-68
2022/07/25 09:17:06;;;;;;;9.75;5.05;;;25.70;99.90;;;;;;5017931;28;20050;-68
2022/07/25 09:19:32;;;;;;;9.02;4.60;;;25.60;99.90;;;;;;5018285;28;20423;-67
2022/07/25 09:22:05;;;;;;;4.63;3.53;;;25.40;99.90;;;;;;5019634;28;20033;-67
2022/07/25 09:24:32;;;;;;;6.63;3.45;;;24.90;99.90;;;;;;5019346;28;20045;-67
2022/07/25 09:27:01;;;;;;;5.43;3.10;;;25.00;99.90;;;;;;5019322;28;20309;-67
2022/07/25 09:29:32;;;;;;;6.10;2.85;;;25.20;99.90;;;;;;5019526;28;20096;-67
2022/07/25 09:32:00;;;;;;;6.40;2.72;;;25.40;99.90;;;;;;5019124;28;20050;-67
2022/07/25 09:34:33;;;;;;;4.10;2.40;;;25.20;99.90;;;;;;5019556;28;20042;-67
2022/07/25 09:37:06;;;;;;;4.68;2.22;;;25.20;99.90;;;;;;5018913;28;20078;-68
2022/07/25 09:39:35;;;;;;;5.13;2.08;;;25.30;99.90;;;;;;5019370;28;20045;-67
2022/07/25 09:42:01;;;;;;;5.40;2.35;;;25.50;99.90;;;;;;5019117;28;20120;-67
2022/07/25 09:44:29;;;;;;;3.30;2.50;;;25.60;99.90;;;;;;5019131;28;20116;-67
2022/07/25 09:47:09;;;;;;;3.08;2.25;;;25.40;99.90;;;;;;5018877;28;20045;-67
2022/07/25 09:49:40;;;;;;;6.28;2.25;;;25.40;99.90;;;;;;5019161;28;20030;-67
2022/07/25 09:52:06;;;;;;;4.45;1.90;;;25.30;99.90;;;;;;5018768;28;20049;-67
2022/07/25 09:54:32;;;;;;;3.25;1.70;;;25.60;99.90;;;;;;5018727;28;20037;-67
2022/07/25 09:56:58;;;;;;;2.53;1.83;;;25.80;99.90;;;;;;5019045;28;20056;-67
2022/07/25 09:59:24;;;;;;;2.63;1.67;;;26.20;99.90;;;;;;5018848;28;20038;-67
2022/07/25 10:02:03;;;;;;;3.35;1.45;;;25.90;99.90;;;;;;5018904;28;20081;-68
2022/07/25 10:04:44;;;;;;;4.80;2.33;;;26.00;99.90;;;;;;5018619;28;20424;-68
2022/07/25 10:07:13;;;;;;;2.63;1.42;;;26.20;99.90;;;;;;5018945;28;20124;-67
2022/07/25 10:09:49;;;;;;;4.20;1.75;;;26.70;99.90;;;;;;5018659;28;20046;-67
2022/07/25 10:12:18;;;;;;;;;;;26.90;99.90;;;;;;5019043;28;20042;-67
2022/07/25 10:15:07;;;;;;;2.88;1.75;;;27.40;99.90;;;;;;5017774;28;19917;-77
2022/07/25 10:17:34;;;;;;;7.55;1.92;;;26.60;99.90;;;;;;5018067;28;20041;-86
2022/07/25 10:20:00;;;;;;;9.60;1.90;;;26.30;99.90;;;;;;5018633;28;20088;-67
2022/07/25 10:22:40;;;;;;;19.67;2.67;;;25.70;99.90;;;;;;5018429;28;20112;-72
2022/07/25 10:25:16;;;;;;;8.85;1.85;;;25.30;99.90;;;;;;5018308;28;20042;-67
2022/07/25 10:27:51;;;;;;;33.40;4.43;;;25.00;99.90;;;;;;5018441;28;20088;-72
2022/07/25 10:30:32;;;;;;;2.20;1.33;;;25.00;99.90;;;;;;5017455;28;20042;-67
2022/07/25 10:33:16;;;;;;;4.50;1.35;;;24.90;99.90;;;;;;5018469;28;20444;-67
2022/07/25 10:35:42;;;;;;;4.50;1.70;;;24.90;99.90;;;;;;5018053;28;20155;-67
2022/07/25 10:38:08;;;;;;;5.50;1.65;;;25.00;99.90;;;;;;5018138;28;20061;-67
2022/07/25 10:40:38;;;;;;;4.50;1.58;;;25.00;99.90;;;;;;5018215;28;20438;-66
2022/07/25 10:43:12;;;;;;;3.22;1.90;;;25.20;99.90;;;;;;5017918;28;20042;-66
2022/07/25 10:45:41;;;;;;;2.58;1.52;;;25.00;99.90;;;;;;5018151;28;20331;-66
2022/07/25 10:48:20;;;;;;;2.88;1.50;;;25.20;99.90;;;;;;5016813;28;20045;-87
2022/07/25 10:51:00;;;;;;;7.97;2.20;;;25.30;99.90;;;;;;5033387;28;20046;-66
2022/07/25 10:53:41;;;;;;;4.25;1.90;;;24.80;99.90;;;;;;5018121;28;20044;-65
2022/07/25 10:56:09;;;;;;;5.68;2.42;;;24.60;99.90;;;;;;5017761;28;20049;-67
2022/07/25 10:58:58;;;;;;;6.22;2.13;;;24.40;99.90;;;;;;5017694;28;20046;-67
2022/07/25 11:01:25;;;;;;;6.57;2.17;;;24.30;99.90;;;;;;5017644;28;20095;-67
2022/07/25 11:03:53;;;;;;;6.82;2.50;;;24.30;99.90;;;;;;5017895;28;20041;-69
2022/07/25 11:06:47;;;;;;;4.50;2.30;;;24.30;99.90;;;;;;5018265;28;20053;-67
2022/07/25 11:09:22;;;;;;;4.13;2.58;;;24.20;99.90;;;;;;5003878;28;20100;-67
2022/07/25 11:11:50;;;;;;;4.00;2.40;;;24.20;99.90;;;;;;5017553;28;20442;-67
2022/07/25 11:14:20;;;;;;;5.60;2.10;;;24.30;99.90;;;;;;5017462;28;20041;-68
2022/07/25 11:16:47;;;;;;;9.93;2.45;;;24.80;99.90;;;;;;5016985;28;20048;-68
2022/07/25 11:19:19;;;;;;;6.45;2.88;;;25.20;99.90;;;;;;5017199;28;20454;-68
2022/07/25 11:21:56;;;;;;;7.93;2.97;;;25.50;99.90;;;;;;5016492;28;20042;-68
2022/07/25 11:24:34;;;;;;;9.13;2.80;;;25.50;99.90;;;;;;5016526;28;20042;-68
2022/07/25 11:26:59;;;;;;;5.22;3.13;;;25.40;99.90;;;;;;5017186;28;20455;-68
2022/07/25 11:29:28;;;;;;;6.10;2.90;;;25.00;99.90;;;;;;5017225;28;20131;-66
2022/07/25 11:31:56;;;;;;;7.43;3.22;;;24.90;99.90;;;;;;5015759;28;20050;-66
2022/07/25 11:34:26;;;;;;;5.82;2.53;;;24.90;99.90;;;;;;5018073;28;20045;-66
2022/07/25 11:36:55;;;;;;;8.75;2.70;;;25.00;99.90;;;;;;5017995;28;20042;-67
2022/07/25 11:39:26;;;;;;;8.32;2.50;;;25.00;99.90;;;;;;5017274;28;20374;-67
2022/07/25 11:42:17;;;;;;;7.43;2.80;;;24.90;99.90;;;;;;5015998;28;20117;-67
2022/07/25 11:44:48;;;;;;;6.65;2.50;;;24.60;99.90;;;;;;5017006;28;20041;-67
2022/07/25 11:47:27;;;;;;;8.10;2.40;;;24.30;99.90;;;;;;5016447;28;20423;-67
2022/07/25 11:49:55;;;;;;;9.05;2.40;;;24.40;99.90;;;;;;5016849;28;20046;-67
2022/07/25 11:52:25;;;;;;;5.93;2.10;;;24.60;99.90;;;;;;5017034;28;20113;-67
2022/07/25 11:54:56;;;;;;;7.63;2.20;;;25.40;99.90;;;;;;5017016;28;20049;-67
2022/07/25 11:57:27;;;;;;;9.02;2.60;;;25.70;99.90;;;;;;5016621;28;20077;-67
2022/07/25 11:59:54;;;;;;;11.38;2.65;;;25.90;99.90;;;;;;5016771;28;20319;-67
2022/07/25 12:02:29;;;;;;;7.90;2.35;;;25.80;99.90;;;;;;5016882;28;20034;-67
2022/07/25 12:05:04;;;;;;;10.52;2.30;;;25.80;99.90;;;;;;5016846;28;20057;-67
2022/07/25 12:07:50;;;;;;;7.13;2.00;;;24.90;99.90;;;;;;5016587;28;20042;-67
2022/07/25 12:10:31;;;;;;;14.38;2.60;;;23.90;99.90;;;;;;5015924;28;20469;-67
2022/07/25 12:12:58;;;;;;;9.85;2.50;;;23.70;99.90;;;;;;5016956;28;20120;-66
2022/07/25 12:15:25;;;;;;;9.82;2.20;;;23.70;99.90;;;;;;5016455;28;20530;-67
2022/07/25 12:17:53;;;;;;;11.05;2.08;;;24.10;99.90;;;;;;5016140;28;20057;-66
2022/07/25 12:20:24;;;;;;;7.65;2.05;;;24.40;99.90;;;;;;5016513;28;20462;-68
2022/07/25 12:22:53;;;;;;;6.97;2.22;;;24.40;99.90;;;;;;5016674;28;20045;-67
2022/07/25 12:25:19;;;;;;;7.38;1.73;;;24.60;99.90;;;;;;5016561;28;20088;-67
2022/07/25 12:27:45;;;;;;;7.25;1.90;;;24.80;99.90;;;;;;5016406;28;20050;-67
2022/07/25 12:30:12;;;;;;;5.05;1.50;;;24.90;99.90;;;;;;5015560;28;20053;-67
2022/07/25 12:32:37;;;;;;;14.68;1.98;;;25.60;99.90;;;;;;5016171;28;20058;-68
2022/07/25 12:35:05;;;;;;;4.88;1.67;;;26.00;99.90;;;;;;5016723;28;20038;-67
2022/07/25 12:37:31;;;;;;;5.88;1.75;;;26.50;99.90;;;;;;5016210;28;20054;-67
2022/07/25 12:39:57;;;;;;;7.80;1.70;;;26.50;99.90;;;;;;5016685;28;20040;-67
2022/07/25 12:42:24;;;;;;;12.07;1.90;;;26.30;99.90;;;;;;5016392;28;20074;-67
2022/07/25 12:44:50;;;;;;;7.25;1.80;;;25.80;99.90;;;;;;5016505;28;20042;-67